Terminal Aerodrome Forecast
Issued by NWS

Home | Current Version | Previous Version | Text Only | Print | Product List | Glossary On
Versions: 1 2 3 4 5 6 7 8 9 10 11 12 13 14 15 16 17 18 19 20 21
000
FTUS43 KDLH 141100
TAFHYR
TAF
KHYR 141121Z 1412/1512 35012KT P6SM BKN028
     FM141400 35010G17KT P6SM VCSH BKN030
     FM142000 34008G15KT P6SM VCSH BKN040
     FM150100 35005KT P6SM SCT050=

USA.gov is the U.S. government's official web portal to all federal, state and local government web resources and services.